sensor_id;sensor_type;location;lat;lon;timestamp;pressure;altitude;pressure_sealevel;temperature;humidity
10881;BME280;5493;48.884;8.338;2022-10-31T00:01:24;100650.41;;;15.34;100.00
10881;BME280;5493;48.884;8.338;2022-10-31T00:03:51;100645.44;;;15.43;100.00
10881;BME280;5493;48.884;8.338;2022-10-31T00:06:18;100641.47;;;15.34;100.00
10881;BME280;5493;48.884;8.338;2022-10-31T00:08:45;100658.78;;;15.44;100.00
10881;BME280;5493;48.884;8.338;2022-10-31T00:11:11;100646.56;;;15.30;100.00
10881;BME280;5493;48.884;8.338;2022-10-31T00:13:38;100648.91;;;15.26;100.00
10881;BME280;5493;48.884;8.338;2022-10-31T00:16:13;100653.03;;;15.29;100.00
10881;BME280;5493;48.884;8.338;2022-10-31T00:18:39;100660.59;;;15.27;100.00
10881;BME280;5493;48.884;8.338;2022-10-31T00:21:06;100653.53;;;15.26;100.00
10881;BME280;5493;48.884;8.338;2022-10-31T00:23:33;100654.91;;;15.00;100.00
10881;BME280;5493;48.884;8.338;2022-10-31T00:26:00;100660.13;;;14.90;100.00
10881;BME280;5493;48.884;8.338;2022-10-31T00:28:27;100651.50;;;14.93;100.00
10881;BME280;5493;48.884;8.338;2022-10-31T00:30:58;100659.72;;;14.98;100.00
10881;BME280;5493;48.884;8.338;2022-10-31T00:33:26;100657.63;;;14.89;100.00
10881;BME280;5493;48.884;8.338;2022-10-31T00:35:52;100655.06;;;14.59;100.00
10881;BME280;5493;48.884;8.338;2022-10-31T00:38:19;100655.88;;;14.59;100.00
10881;BME280;5493;48.884;8.338;2022-10-31T00:40:46;100648.91;;;14.52;100.00
10881;BME280;5493;48.884;8.338;2022-10-31T00:43:12;100658.00;;;14.46;100.00
10881;BME280;5493;48.884;8.338;2022-10-31T00:45:39;100658.94;;;14.28;100.00
10881;BME280;5493;48.884;8.338;2022-10-31T00:48:07;100656.31;;;14.33;100.00
10881;BME280;5493;48.884;8.338;2022-10-31T00:50:34;100652.78;;;14.32;100.00
10881;BME280;5493;48.884;8.338;2022-10-31T00:53:01;100655.50;;;14.21;100.00
10881;BME280;5493;48.884;8.338;2022-10-31T00:55:28;100650.28;;;14.19;100.00
10881;BME280;5493;48.884;8.338;2022-10-31T00:57:54;100655.13;;;14.06;100.00
10881;BME280;5493;48.884;8.338;2022-10-31T01:00:21;100657.72;;;14.12;100.00
10881;BME280;5493;48.884;8.338;2022-10-31T01:02:47;100654.53;;;14.15;100.00
10881;BME280;5493;48.884;8.338;2022-10-31T01:05:14;100658.06;;;14.04;100.00
10881;BME280;5493;48.884;8.338;2022-10-31T01:07:42;100660.94;;;14.21;100.00
10881;BME280;5493;48.884;8.338;2022-10-31T01:10:10;100657.41;;;14.32;100.00
10881;BME280;5493;48.884;8.338;2022-10-31T01:12:37;100664.72;;;14.32;100.00
10881;BME280;5493;48.884;8.338;2022-10-31T01:15:04;100661.16;;;14.31;100.00
10881;BME280;5493;48.884;8.338;2022-10-31T01:17:31;100664.44;;;14.33;100.00
10881;BME280;5493;48.884;8.338;2022-10-31T01:19:58;100666.72;;;14.24;100.00
10881;BME280;5493;48.884;8.338;2022-10-31T01:22:24;100662.66;;;14.15;100.00
10881;BME280;5493;48.884;8.338;2022-10-31T01:24:52;100665.25;;;14.22;100.00
10881;BME280;5493;48.884;8.338;2022-10-31T01:27:19;100664.09;;;14.18;100.00
10881;BME280;5493;48.884;8.338;2022-10-31T01:29:45;100657.19;;;13.80;100.00
10881;BME280;5493;48.884;8.338;2022-10-31T01:32:12;100663.06;;;13.77;100.00
10881;BME280;5493;48.884;8.338;2022-10-31T01:34:38;100664.13;;;13.76;100.00
10881;BME280;5493;48.884;8.338;2022-10-31T01:37:05;100658.84;;;13.82;100.00
10881;BME280;5493;48.884;8.338;2022-10-31T01:39:31;100661.56;;;13.82;100.00
10881;BME280;5493;48.884;8.338;2022-10-31T01:41:59;100665.06;;;13.70;100.00
10881;BME280;5493;48.884;8.338;2022-10-31T01:44:50;100662.06;;;14.02;100.00
10881;BME280;5493;48.884;8.338;2022-10-31T01:47:18;100652.53;;;13.99;100.00
10881;BME280;5493;48.884;8.338;2022-10-31T01:49:49;100664.09;;;14.18;100.00
10881;BME280;5493;48.884;8.338;2022-10-31T01:52:21;100653.00;;;14.19;100.00
10881;BME280;5493;48.884;8.338;2022-10-31T01:54:52;100658.28;;;14.14;100.00
10881;BME280;5493;48.884;8.338;2022-10-31T01:57:21;100663.28;;;14.17;100.00
10881;BME280;5493;48.884;8.338;2022-10-31T01:59:52;100659.13;;;14.03;100.00
10881;BME280;5493;48.884;8.338;2022-10-31T02:02:20;100662.78;;;14.09;100.00
10881;BME280;5493;48.884;8.338;2022-10-31T02:04:48;100665.94;;;13.94;100.00
10881;BME280;5493;48.884;8.338;2022-10-31T02:07:18;100662.00;;;13.78;100.00
10881;BME280;5493;48.884;8.338;2022-10-31T02:09:47;100669.44;;;13.83;100.00
10881;BME280;5493;48.884;8.338;2022-10-31T02:12:16;100665.53;;;13.79;100.00
10881;BME280;5493;48.884;8.338;2022-10-31T02:14:45;100672.72;;;13.44;100.00
10881;BME280;5493;48.884;8.338;2022-10-31T02:17:12;100669.44;;;13.53;100.00
10881;BME280;5493;48.884;8.338;2022-10-31T02:19:45;100668.66;;;13.64;100.00
10881;BME280;5493;48.884;8.338;2022-10-31T02:22:18;100666.28;;;13.56;100.00
10881;BME280;5493;48.884;8.338;2022-10-31T02:25:00;100659.38;;;13.72;100.00
10881;BME280;5493;48.884;8.338;2022-10-31T02:28:00;100659.00;;;13.68;100.00
10881;BME280;5493;48.884;8.338;2022-10-31T02:30:37;100652.34;;;13.41;100.00
10881;BME280;5493;48.884;8.338;2022-10-31T02:33:17;100653.66;;;13.50;100.00
10881;BME280;5493;48.884;8.338;2022-10-31T02:35:55;100649.22;;;13.67;100.00
10881;BME280;5493;48.884;8.338;2022-10-31T02:38:31;100650.31;;;13.37;100.00
10881;BME280;5493;48.884;8.338;2022-10-31T02:41:06;100650.97;;;13.32;100.00
10881;BME280;5493;48.884;8.338;2022-10-31T02:43:41;100645.47;;;13.39;100.00
10881;BME280;5493;48.884;8.338;2022-10-31T02:46:13;100654.28;;;13.64;100.00
10881;BME280;5493;48.884;8.338;2022-10-31T02:48:44;100649.28;;;13.79;100.00
10881;BME280;5493;48.884;8.338;2022-10-31T02:51:12;100646.75;;;13.66;100.00
10881;BME280;5493;48.884;8.338;2022-10-31T02:53:39;100647.81;;;13.65;100.00
10881;BME280;5493;48.884;8.338;2022-10-31T02:56:08;100650.53;;;13.65;100.00
10881;BME280;5493;48.884;8.338;2022-10-31T02:58:40;100647.91;;;13.58;100.00
10881;BME280;5493;48.884;8.338;2022-10-31T03:01:38;100655.25;;;13.40;100.00
10881;BME280;5493;48.884;8.338;2022-10-31T03:04:49;100652.28;;;13.29;100.00
10881;BME280;5493;48.884;8.338;2022-10-31T03:07:25;100647.03;;;13.16;100.00
10881;BME280;5493;48.884;8.338;2022-10-31T03:10:03;100651.91;;;13.26;100.00
10881;BME280;5493;48.884;8.338;2022-10-31T03:12:37;100655.50;;;13.02;100.00
10881;BME280;5493;48.884;8.338;2022-10-31T03:15:12;100650.78;;;13.15;100.00
10881;BME280;5493;48.884;8.338;2022-10-31T03:17:47;100649.28;;;13.19;100.00
10881;BME280;5493;48.884;8.338;2022-10-31T03:20:20;100647.91;;;13.28;100.00
10881;BME280;5493;48.884;8.338;2022-10-31T03:22:51;100640.91;;;13.03;100.00
10881;BME280;5493;48.884;8.338;2022-10-31T03:25:19;100642.78;;;13.02;100.00
10881;BME280;5493;48.884;8.338;2022-10-31T03:27:46;100636.94;;;13.05;100.00
10881;BME280;5493;48.884;8.338;2022-10-31T03:30:14;100646.19;;;12.98;100.00
10881;BME280;5493;48.884;8.338;2022-10-31T03:32:42;100641.16;;;13.19;100.00
10881;BME280;5493;48.884;8.338;2022-10-31T03:35:14;100645.94;;;13.36;100.00
10881;BME280;5493;48.884;8.338;2022-10-31T03:37:44;100637.63;;;13.19;100.00
10881;BME280;5493;48.884;8.338;2022-10-31T03:40:12;100650.22;;;13.07;100.00
10881;BME280;5493;48.884;8.338;2022-10-31T03:42:43;100648.06;;;12.79;100.00
10881;BME280;5493;48.884;8.338;2022-10-31T03:45:15;100646.66;;;12.95;100.00
10881;BME280;5493;48.884;8.338;2022-10-31T03:47:46;100642.72;;;13.09;100.00
10881;BME280;5493;48.884;8.338;2022-10-31T03:50:14;100638.44;;;13.19;100.00
10881;BME280;5493;48.884;8.338;2022-10-31T03:52:46;100636.06;;;13.11;100.00
10881;BME280;5493;48.884;8.338;2022-10-31T03:55:18;100635.94;;;13.00;100.00
10881;BME280;5493;48.884;8.338;2022-10-31T03:57:49;100628.94;;;12.92;100.00
10881;BME280;5493;48.884;8.338;2022-10-31T04:00:18;100637.31;;;13.09;100.00
10881;BME280;5493;48.884;8.338;2022-10-31T04:02:49;100634.22;;;13.05;100.00
10881;BME280;5493;48.884;8.338;2022-10-31T04:05:20;100640.91;;;13.03;100.00
10881;BME280;5493;48.884;8.338;2022-10-31T04:07:51;100631.94;;;13.02;100.00
10881;BME280;5493;48.884;8.338;2022-10-31T04:10:20;100632.50;;;12.93;100.00
10881;BME280;5493;48.884;8.338;2022-10-31T04:12:51;100637.16;;;12.86;100.00
10881;BME280;5493;48.884;8.338;2022-10-31T04:15:20;100643.47;;;12.98;100.00
10881;BME280;5493;48.884;8.338;2022-10-31T04:17:49;100637.47;;;13.14;100.00
10881;BME280;5493;48.884;8.338;2022-10-31T04:20:18;100635.66;;;12.90;100.00
10881;BME280;5493;48.884;8.338;2022-10-31T04:22:45;100639.78;;;12.92;100.00
10881;BME280;5493;48.884;8.338;2022-10-31T04:25:13;100640.00;;;13.09;100.00
10881;BME280;5493;48.884;8.338;2022-10-31T04:27:39;100638.91;;;12.80;100.00
10881;BME280;5493;48.884;8.338;2022-10-31T04:30:07;100644.53;;;12.78;100.00
10881;BME280;5493;48.884;8.338;2022-10-31T04:32:34;100642.09;;;12.70;100.00
10881;BME280;5493;48.884;8.338;2022-10-31T04:35:00;100639.31;;;12.95;100.00
10881;BME280;5493;48.884;8.338;2022-10-31T04:37:27;100638.53;;;12.95;100.00
10881;BME280;5493;48.884;8.338;2022-10-31T04:39:53;100634.53;;;12.79;100.00
10881;BME280;5493;48.884;8.338;2022-10-31T04:42:21;100632.38;;;12.88;100.00
10881;BME280;5493;48.884;8.338;2022-10-31T04:44:48;100634.16;;;12.94;100.00
10881;BME280;5493;48.884;8.338;2022-10-31T04:47:14;100629.72;;;12.81;100.00
10881;BME280;5493;48.884;8.338;2022-10-31T04:49:41;100632.94;;;12.53;100.00
10881;BME280;5493;48.884;8.338;2022-10-31T04:52:07;100635.75;;;12.83;100.00
10881;BME280;5493;48.884;8.338;2022-10-31T04:54:34;100637.16;;;12.67;100.00
10881;BME280;5493;48.884;8.338;2022-10-31T04:57:00;100638.31;;;12.35;100.00
10881;BME280;5493;48.884;8.338;2022-10-31T04:59:28;100640.34;;;12.40;100.00
10881;BME280;5493;48.884;8.338;2022-10-31T05:01:55;100635.28;;;12.68;100.00
10881;BME280;5493;48.884;8.338;2022-10-31T05:04:22;100629.41;;;12.71;100.00
10881;BME280;5493;48.884;8.338;2022-10-31T05:06:49;100621.75;;;12.50;100.00
10881;BME280;5493;48.884;8.338;2022-10-31T05:09:15;100623.59;;;12.49;100.00
10881;BME280;5493;48.884;8.338;2022-10-31T05:11:42;100617.31;;;12.73;100.00
10881;BME280;5493;48.884;8.338;2022-10-31T05:14:09;100614.75;;;12.78;100.00
10881;BME280;5493;48.884;8.338;2022-10-31T05:16:36;100612.44;;;12.82;100.00
10881;BME280;5493;48.884;8.338;2022-10-31T05:19:03;100613.72;;;12.61;100.00
10881;BME280;5493;48.884;8.338;2022-10-31T05:21:30;100613.25;;;12.64;100.00
10881;BME280;5493;48.884;8.338;2022-10-31T05:23:56;100613.03;;;12.66;100.00
10881;BME280;5493;48.884;8.338;2022-10-31T05:26:23;100606.56;;;12.67;100.00
10881;BME280;5493;48.884;8.338;2022-10-31T05:28:50;100611.88;;;12.55;100.00
10881;BME280;5493;48.884;8.338;2022-10-31T05:31:17;100609.63;;;12.52;100.00
10881;BME280;5493;48.884;8.338;2022-10-31T05:33:45;100606.94;;;12.70;100.00
10881;BME280;5493;48.884;8.338;2022-10-31T05:36:11;100604.03;;;12.72;100.00
10881;BME280;5493;48.884;8.338;2022-10-31T05:38:38;100604.53;;;12.80;100.00
10881;BME280;5493;48.884;8.338;2022-10-31T05:41:04;100604.75;;;12.61;100.00
10881;BME280;5493;48.884;8.338;2022-10-31T05:43:31;100600.75;;;12.45;100.00
10881;BME280;5493;48.884;8.338;2022-10-31T05:45:57;100601.59;;;12.46;100.00
10881;BME280;5493;48.884;8.338;2022-10-31T05:48:24;100596.88;;;12.59;100.00
10881;BME280;5493;48.884;8.338;2022-10-31T05:50:52;100603.94;;;12.60;100.00
10881;BME280;5493;48.884;8.338;2022-10-31T05:53:18;100602.06;;;12.61;100.00
10881;BME280;5493;48.884;8.338;2022-10-31T05:55:46;100607.16;;;12.51;100.00
10881;BME280;5493;48.884;8.338;2022-10-31T05:58:13;100602.94;;;12.37;100.00
10881;BME280;5493;48.884;8.338;2022-10-31T06:00:39;100609.56;;;12.16;100.00
10881;BME280;5493;48.884;8.338;2022-10-31T06:03:07;100604.13;;;12.22;100.00
10881;BME280;5493;48.884;8.338;2022-10-31T06:05:34;100608.09;;;12.20;100.00
10881;BME280;5493;48.884;8.338;2022-10-31T06:08:02;100612.38;;;12.27;100.00
10881;BME280;5493;48.884;8.338;2022-10-31T06:10:29;100613.28;;;12.21;100.00
10881;BME280;5493;48.884;8.338;2022-10-31T06:12:55;100610.81;;;12.38;100.00
10881;BME280;5493;48.884;8.338;2022-10-31T06:15:22;100611.53;;;12.70;100.00
10881;BME280;5493;48.884;8.338;2022-10-31T06:17:57;100605.06;;;12.71;100.00
10881;BME280;5493;48.884;8.338;2022-10-31T06:20:24;100608.91;;;12.81;100.00
10881;BME280;5493;48.884;8.338;2022-10-31T06:22:51;100615.22;;;12.75;100.00
10881;BME280;5493;48.884;8.338;2022-10-31T06:25:18;100615.66;;;12.91;100.00
10881;BME280;5493;48.884;8.338;2022-10-31T06:27:45;100603.34;;;12.95;100.00
10881;BME280;5493;48.884;8.338;2022-10-31T06:30:12;100608.00;;;12.69;100.00
10881;BME280;5493;48.884;8.338;2022-10-31T06:32:39;100610.63;;;12.40;100.00
10881;BME280;5493;48.884;8.338;2022-10-31T06:35:06;100618.53;;;11.92;100.00
10881;BME280;5493;48.884;8.338;2022-10-31T06:37:32;100623.53;;;12.13;100.00
10881;BME280;5493;48.884;8.338;2022-10-31T06:39:59;100627.59;;;12.04;100.00
10881;BME280;5493;48.884;8.338;2022-10-31T06:42:27;100620.06;;;11.81;100.00
10881;BME280;5493;48.884;8.338;2022-10-31T06:44:54;100618.69;;;11.97;100.00
10881;BME280;5493;48.884;8.338;2022-10-31T06:47:20;100623.34;;;11.83;100.00
10881;BME280;5493;48.884;8.338;2022-10-31T06:49:46;100618.03;;;12.01;100.00
10881;BME280;5493;48.884;8.338;2022-10-31T06:52:13;100614.72;;;12.24;100.00
10881;BME280;5493;48.884;8.338;2022-10-31T06:54:40;100620.00;;;12.12;100.00
10881;BME280;5493;48.884;8.338;2022-10-31T06:57:06;100613.94;;;12.60;100.00
10881;BME280;5493;48.884;8.338;2022-10-31T06:59:34;100618.31;;;12.79;100.00
10881;BME280;5493;48.884;8.338;2022-10-31T07:02:01;100611.59;;;12.63;100.00
10881;BME280;5493;48.884;8.338;2022-10-31T07:04:27;100621.28;;;12.53;100.00
10881;BME280;5493;48.884;8.338;2022-10-31T07:06:54;100614.56;;;12.80;100.00
10881;BME280;5493;48.884;8.338;2022-10-31T07:09:20;100611.91;;;13.10;100.00
10881;BME280;5493;48.884;8.338;2022-10-31T07:11:47;100606.09;;;13.24;100.00
10881;BME280;5493;48.884;8.338;2022-10-31T07:14:13;100606.59;;;13.33;100.00
10881;BME280;5493;48.884;8.338;2022-10-31T07:16:41;100608.75;;;13.43;100.00
10881;BME280;5493;48.884;8.338;2022-10-31T07:19:08;100607.34;;;13.40;100.00
10881;BME280;5493;48.884;8.338;2022-10-31T07:21:35;100615.78;;;13.32;100.00
10881;BME280;5493;48.884;8.338;2022-10-31T07:24:01;100610.50;;;13.37;100.00
10881;BME280;5493;48.884;8.338;2022-10-31T07:26:28;100615.78;;;13.62;100.00
10881;BME280;5493;48.884;8.338;2022-10-31T07:28:54;100610.75;;;13.77;100.00
10881;BME280;5493;48.884;8.338;2022-10-31T07:31:21;100618.75;;;13.84;100.00
10881;BME280;5493;48.884;8.338;2022-10-31T07:33:49;100616.66;;;13.97;100.00
10881;BME280;5493;48.884;8.338;2022-10-31T07:36:16;100621.53;;;14.07;100.00
10881;BME280;5493;48.884;8.338;2022-10-31T07:38:42;100626.25;;;14.00;100.00
10881;BME280;5493;48.884;8.338;2022-10-31T07:41:09;100614.78;;;13.98;100.00
10881;BME280;5493;48.884;8.338;2022-10-31T07:43:35;100628.59;;;14.19;100.00
10881;BME280;5493;48.884;8.338;2022-10-31T07:46:02;100621.50;;;14.18;100.00
10881;BME280;5493;48.884;8.338;2022-10-31T07:48:28;100624.00;;;14.20;100.00
10881;BME280;5493;48.884;8.338;2022-10-31T07:50:56;100626.28;;;14.46;100.00
10881;BME280;5493;48.884;8.338;2022-10-31T07:53:23;100623.09;;;14.61;100.00
10881;BME280;5493;48.884;8.338;2022-10-31T07:55:50;100625.19;;;14.70;100.00
10881;BME280;5493;48.884;8.338;2022-10-31T07:58:17;100620.94;;;14.74;100.00
10881;BME280;5493;48.884;8.338;2022-10-31T08:00:46;100617.38;;;14.86;100.00
10881;BME280;5493;48.884;8.338;2022-10-31T08:03:14;100607.78;;;14.95;100.00
10881;BME280;5493;48.884;8.338;2022-10-31T08:05:41;100613.72;;;14.80;100.00
10881;BME280;5493;48.884;8.338;2022-10-31T08:08:12;100610.31;;;14.73;100.00
10881;BME280;5493;48.884;8.338;2022-10-31T08:10:39;100612.09;;;14.67;100.00
10881;BME280;5493;48.884;8.338;2022-10-31T08:13:08;100621.78;;;14.63;100.00
10881;BME280;5493;48.884;8.338;2022-10-31T08:15:35;100619.75;;;14.94;100.00
10881;BME280;5493;48.884;8.338;2022-10-31T08:18:04;100618.84;;;15.05;100.00
10881;BME280;5493;48.884;8.338;2022-10-31T08:20:31;100620.34;;;15.24;100.00
10881;BME280;5493;48.884;8.338;2022-10-31T08:22:59;100621.97;;;15.37;100.00
10881;BME280;5493;48.884;8.338;2022-10-31T08:25:28;100609.41;;;15.07;100.00
10881;BME280;5493;48.884;8.338;2022-10-31T08:27:55;100616.03;;;15.11;100.00
10881;BME280;5493;48.884;8.338;2022-10-31T08:30:24;100614.38;;;15.10;100.00
10881;BME280;5493;48.884;8.338;2022-10-31T08:32:58;100612.09;;;15.19;100.00
10881;BME280;5493;48.884;8.338;2022-10-31T08:35:24;100614.53;;;15.60;100.00
10881;BME280;5493;48.884;8.338;2022-10-31T08:37:52;100621.31;;;15.74;100.00
10881;BME280;5493;48.884;8.338;2022-10-31T08:40:18;100614.81;;;15.75;100.00
10881;BME280;5493;48.884;8.338;2022-10-31T08:42:46;100609.88;;;15.89;100.00
10881;BME280;5493;48.884;8.338;2022-10-31T08:45:13;100610.38;;;16.03;100.00
10881;BME280;5493;48.884;8.338;2022-10-31T08:47:40;100606.25;;;16.17;100.00
10881;BME280;5493;48.884;8.338;2022-10-31T08:50:07;100590.41;;;16.31;100.00
10881;BME280;5493;48.884;8.338;2022-10-31T08:52:33;100593.09;;;16.47;100.00
10881;BME280;5493;48.884;8.338;2022-10-31T08:55:00;100600.25;;;16.53;100.00
10881;BME280;5493;48.884;8.338;2022-10-31T08:57:26;100588.78;;;16.68;100.00
10881;BME280;5493;48.884;8.338;2022-10-31T08:59:54;100595.88;;;16.69;100.00
10881;BME280;5493;48.884;8.338;2022-10-31T09:02:21;100593.25;;;16.74;100.00
10881;BME280;5493;48.884;8.338;2022-10-31T09:04:47;100592.84;;;16.87;100.00
10881;BME280;5493;48.884;8.338;2022-10-31T09:07:14;100596.00;;;17.01;100.00
10881;BME280;5493;48.884;8.338;2022-10-31T09:09:40;100597.44;;;17.03;100.00
10881;BME280;5493;48.884;8.338;2022-10-31T09:12:07;100597.72;;;17.07;100.00
10881;BME280;5493;48.884;8.338;2022-10-31T09:14:33;100589.63;;;16.90;100.00
10881;BME280;5493;48.884;8.338;2022-10-31T09:17:01;100588.97;;;17.05;100.00
10881;BME280;5493;48.884;8.338;2022-10-31T09:19:28;100583.28;;;17.06;100.00
10881;BME280;5493;48.884;8.338;2022-10-31T09:21:54;100589.56;;;16.85;100.00
10881;BME280;5493;48.884;8.338;2022-10-31T09:24:21;100586.56;;;17.08;100.00
10881;BME280;5493;48.884;8.338;2022-10-31T09:26:47;100583.91;;;17.13;100.00
10881;BME280;5493;48.884;8.338;2022-10-31T09:29:14;100585.75;;;17.08;100.00
10881;BME280;5493;48.884;8.338;2022-10-31T09:31:40;100581.69;;;17.10;100.00
10881;BME280;5493;48.884;8.338;2022-10-31T09:34:08;100580.13;;;16.93;100.00
10881;BME280;5493;48.884;8.338;2022-10-31T09:36:35;100586.00;;;17.06;100.00
10881;BME280;5493;48.884;8.338;2022-10-31T09:39:02;100575.84;;;17.23;100.00
10881;BME280;5493;48.884;8.338;2022-10-31T09:41:35;100572.03;;;17.25;100.00
10881;BME280;5493;48.884;8.338;2022-10-31T09:44:08;100573.50;;;17.32;100.00
10881;BME280;5493;48.884;8.338;2022-10-31T09:46:47;100571.59;;;17.59;100.00
10881;BME280;5493;48.884;8.338;2022-10-31T09:49:34;100571.38;;;17.66;100.00
10881;BME280;5493;48.884;8.338;2022-10-31T09:52:05;100565.75;;;17.78;100.00
10881;BME280;5493;48.884;8.338;2022-10-31T09:54:38;100565.94;;;17.66;100.00
10881;BME280;5493;48.884;8.338;2022-10-31T09:57:12;100568.19;;;17.74;100.00
10881;BME280;5493;48.884;8.338;2022-10-31T09:59:40;100556.59;;;17.89;100.00
10881;BME280;5493;48.884;8.338;2022-10-31T10:02:13;100547.56;;;17.88;100.00
10881;BME280;5493;48.884;8.338;2022-10-31T10:04:48;100551.78;;;18.06;100.00
10881;BME280;5493;48.884;8.338;2022-10-31T10:07:25;100549.28;;;17.99;100.00
10881;BME280;5493;48.884;8.338;2022-10-31T10:09:53;100543.66;;;18.16;100.00
10881;BME280;5493;48.884;8.338;2022-10-31T10:12:39;100544.78;;;18.20;100.00
10881;BME280;5493;48.884;8.338;2022-10-31T10:15:25;100540.13;;;18.15;100.00
10881;BME280;5493;48.884;8.338;2022-10-31T10:18:02;100542.69;;;17.90;100.00
10881;BME280;5493;48.884;8.338;2022-10-31T10:20:37;100536.53;;;18.05;100.00
10881;BME280;5493;48.884;8.338;2022-10-31T10:23:21;100535.88;;;17.93;100.00
10881;BME280;5493;48.884;8.338;2022-10-31T10:25:53;100538.91;;;17.96;100.00
10881;BME280;5493;48.884;8.338;2022-10-31T10:28:23;100532.34;;;18.39;100.00
10881;BME280;5493;48.884;8.338;2022-10-31T10:30:56;100539.88;;;18.59;100.00
10881;BME280;5493;48.884;8.338;2022-10-31T10:33:32;100536.91;;;18.71;100.00
10881;BME280;5493;48.884;8.338;2022-10-31T10:36:04;100526.84;;;18.76;100.00
10881;BME280;5493;48.884;8.338;2022-10-31T10:38:34;100530.16;;;18.41;100.00
10881;BME280;5493;48.884;8.338;2022-10-31T10:41:20;100532.94;;;18.46;100.00
10881;BME280;5493;48.884;8.338;2022-10-31T10:43:48;100529.44;;;18.51;100.00
10881;BME280;5493;48.884;8.338;2022-10-31T10:46:23;100525.78;;;18.87;100.00
10881;BME280;5493;48.884;8.338;2022-10-31T10:49:16;100526.69;;;19.13;100.00
10881;BME280;5493;48.884;8.338;2022-10-31T10:51:47;100517.63;;;19.17;100.00
10881;BME280;5493;48.884;8.338;2022-10-31T10:57:21;100522.31;;;19.17;100.00
10881;BME280;5493;48.884;8.338;2022-10-31T10:59:49;100514.28;;;18.85;100.00
10881;BME280;5493;48.884;8.338;2022-10-31T11:02:19;100497.69;;;19.12;100.00
10881;BME280;5493;48.884;8.338;2022-10-31T11:04:50;100500.97;;;19.14;100.00
10881;BME280;5493;48.884;8.338;2022-10-31T11:07:19;100494.72;;;19.39;100.00
10881;BME280;5493;48.884;8.338;2022-10-31T11:09:46;100496.34;;;19.40;100.00
10881;BME280;5493;48.884;8.338;2022-10-31T11:12:20;100490.66;;;19.67;100.00
10881;BME280;5493;48.884;8.338;2022-10-31T11:14:50;100484.59;;;19.29;100.00
10881;BME280;5493;48.884;8.338;2022-10-31T11:17:25;100482.69;;;19.30;100.00
10881;BME280;5493;48.884;8.338;2022-10-31T11:20:04;100477.22;;;19.50;100.00
10881;BME280;5493;48.884;8.338;2022-10-31T11:22:33;100478.03;;;19.30;100.00
10881;BME280;5493;48.884;8.338;2022-10-31T11:24:59;100474.41;;;18.84;100.00
10881;BME280;5493;48.884;8.338;2022-10-31T11:27:26;100470.94;;;19.34;100.00
10881;BME280;5493;48.884;8.338;2022-10-31T11:30:03;100482.16;;;19.78;100.00
10881;BME280;5493;48.884;8.338;2022-10-31T11:32:30;100468.72;;;19.92;100.00
10881;BME280;5493;48.884;8.338;2022-10-31T11:35:00;100464.59;;;20.04;100.00
10881;BME280;5493;48.884;8.338;2022-10-31T11:37:29;100470.34;;;19.98;100.00
10881;BME280;5493;48.884;8.338;2022-10-31T11:40:02;100465.44;;;20.00;100.00
10881;BME280;5493;48.884;8.338;2022-10-31T11:42:35;100469.78;;;20.06;100.00
10881;BME280;5493;48.884;8.338;2022-10-31T11:45:07;100473.91;;;19.93;100.00
10881;BME280;5493;48.884;8.338;2022-10-31T11:47:42;100480.53;;;19.82;100.00
10881;BME280;5493;48.884;8.338;2022-10-31T11:50:11;100476.66;;;20.03;100.00
10881;BME280;5493;48.884;8.338;2022-10-31T11:52:44;100466.22;;;20.10;100.00
10881;BME280;5493;48.884;8.338;2022-10-31T11:55:17;100448.41;;;20.18;100.00
10881;BME280;5493;48.884;8.338;2022-10-31T11:57:56;100446.47;;;20.24;100.00
10881;BME280;5493;48.884;8.338;2022-10-31T12:00:24;100435.22;;;20.35;100.00
10881;BME280;5493;48.884;8.338;2022-10-31T12:03:04;100427.84;;;20.31;100.00
10881;BME280;5493;48.884;8.338;2022-10-31T12:05:37;100428.34;;;20.43;100.00
10881;BME280;5493;48.884;8.338;2022-10-31T12:08:07;100419.84;;;20.44;100.00
10881;BME280;5493;48.884;8.338;2022-10-31T12:10:40;100426.13;;;20.50;100.00
10881;BME280;5493;48.884;8.338;2022-10-31T12:13:27;100425.94;;;20.31;100.00
10881;BME280;5493;48.884;8.338;2022-10-31T12:16:02;100411.16;;;20.17;100.00
10881;BME280;5493;48.884;8.338;2022-10-31T12:18:49;100399.94;;;20.29;100.00
10881;BME280;5493;48.884;8.338;2022-10-31T12:21:34;100398.63;;;20.01;100.00
10881;BME280;5493;48.884;8.338;2022-10-31T12:24:15;100402.97;;;20.17;100.00
10881;BME280;5493;48.884;8.338;2022-10-31T12:26:54;100407.09;;;20.14;100.00
10881;BME280;5493;48.884;8.338;2022-10-31T12:29:35;100394.78;;;20.07;100.00
10881;BME280;5493;48.884;8.338;2022-10-31T12:32:17;100385.47;;;20.08;100.00
10881;BME280;5493;48.884;8.338;2022-10-31T12:35:03;100377.28;;;19.98;100.00
10881;BME280;5493;48.884;8.338;2022-10-31T12:37:42;100381.72;;;19.89;100.00
10881;BME280;5493;48.884;8.338;2022-10-31T12:40:29;100369.69;;;19.80;100.00
10881;BME280;5493;48.884;8.338;2022-10-31T12:43:09;100364.44;;;19.93;100.00
10881;BME280;5493;48.884;8.338;2022-10-31T12:45:51;100362.03;;;19.82;100.00
10881;BME280;5493;48.884;8.338;2022-10-31T12:48:35;100373.91;;;20.75;100.00
10881;BME280;5493;48.884;8.338;2022-10-31T12:51:10;100374.72;;;21.20;100.00
10881;BME280;5493;48.884;8.338;2022-10-31T12:53:51;100373.56;;;21.54;100.00
10881;BME280;5493;48.884;8.338;2022-10-31T12:56:34;100365.78;;;21.90;100.00
10881;BME280;5493;48.884;8.338;2022-10-31T12:59:11;100351.88;;;21.53;100.00
10881;BME280;5493;48.884;8.338;2022-10-31T13:01:45;100349.69;;;20.87;100.00
10881;BME280;5493;48.884;8.338;2022-10-31T13:04:24;100346.75;;;21.18;100.00
10881;BME280;5493;48.884;8.338;2022-10-31T13:06:59;100342.78;;;20.61;100.00
10881;BME280;5493;48.884;8.338;2022-10-31T13:09:35;100333.06;;;20.35;100.00